Time;durP1;ratioP1;P1;durP2;ratioP2;P2;SDS_P1;SDS_P2;PMS_P1;PMS_P2;Temp;Humidity;BMP_temperature;BMP_pressure;BME280_temperature;BME280_humidity;BME280_pressure;Samples;Min_cycle;Max_cycle;Signal;HPM_P1;HPM_P2
2022/05/26 00:02:39;;;;;;;4.25;1.30;;;15.90;93.70;;;;;;6992432;28;20433;-80
2022/05/26 00:06:02;;;;;;;4.43;1.20;;;15.80;93.50;;;;;;6980924;28;20052;-80
2022/05/26 00:09:24;;;;;;;3.30;1.00;;;15.80;94.00;;;;;;6996615;28;20057;-79
2022/05/26 00:12:46;;;;;;;3.57;1.07;;;15.90;94.10;;;;;;6979539;28;20052;-80
2022/05/26 00:16:11;;;;;;;3.00;1.03;;;15.80;94.10;;;;;;6986712;28;20310;-80
2022/05/26 00:19:34;;;;;;;3.78;1.20;;;15.90;94.20;;;;;;6987721;28;20048;-80
2022/05/26 00:22:56;;;;;;;;;;;15.80;94.30;;;;;;6983696;28;20137;-80
2022/05/26 00:26:18;;;;;;;4.80;1.38;;;15.90;94.90;;;;;;6995673;28;19943;-80
2022/05/26 00:29:40;;;;;;;3.10;1.23;;;15.80;95.30;;;;;;6961486;28;20048;-78
2022/05/26 00:33:05;;;;;;;3.67;1.05;;;15.70;95.50;;;;;;6993383;28;20477;-79
2022/05/26 00:36:41;;;;;;;5.13;1.20;;;15.70;95.60;;;;;;6983287;28;20078;-79
2022/05/26 00:40:06;;;;;;;3.78;1.20;;;15.70;96.10;;;;;;6970239;28;20691;-79
2022/05/26 00:43:28;;;;;;;3.33;1.20;;;15.70;96.50;;;;;;6973956;28;20262;-79
2022/05/26 00:46:54;;;;;;;2.88;1.38;;;15.60;96.20;;;;;;6985517;28;20049;-80
2022/05/26 00:50:27;;;;;;;2.72;1.10;;;15.60;96.30;;;;;;6983780;28;20056;-79
2022/05/26 00:53:56;;;;;;;2.90;1.02;;;15.30;96.50;;;;;;6968615;28;20041;-80
2022/05/26 00:57:23;;;;;;;4.95;1.13;;;15.20;97.40;;;;;;6968365;28;20044;-80
2022/05/26 01:00:46;;;;;;;4.75;1.40;;;15.00;97.00;;;;;;6968848;28;20067;-79
2022/05/26 01:04:11;;;;;;;;;;;15.10;96.90;;;;;;6988322;28;20048;-80
2022/05/26 01:07:39;;;;;;;2.40;0.95;;;15.10;97.40;;;;;;6991188;28;20290;-81
2022/05/26 01:11:01;;;;;;;2.97;0.98;;;15.20;96.60;;;;;;6973550;28;20044;-79
2022/05/26 01:14:27;;;;;;;3.55;1.08;;;15.10;97.10;;;;;;6976564;28;20127;-80
2022/05/26 01:18:03;;;;;;;4.18;1.10;;;15.10;96.40;;;;;;6982696;28;20045;-80
2022/05/26 01:21:32;;;;;;;3.83;0.90;;;15.20;96.00;;;;;;6979650;28;20040;-81
2022/05/26 01:25:25;;;;;;;2.90;0.90;;;15.10;96.10;;;;;;6966142;28;20076;-81
2022/05/26 01:29:34;;;;;;;2.30;0.80;;;15.00;95.70;;;;;;6988390;28;20045;-81
2022/05/26 01:33:27;;;;;;;2.78;1.00;;;15.00;96.30;;;;;;6980542;28;20056;-81
2022/05/26 01:36:58;;;;;;;5.43;1.85;;;14.90;95.90;;;;;;7001570;28;20051;-81
2022/05/26 01:40:30;;;;;;;2.45;1.00;;;15.00;96.30;;;;;;7000384;28;20049;-82
2022/05/26 01:44:04;;;;;;;2.88;1.10;;;14.90;95.80;;;;;;6991016;28;20052;-80
2022/05/26 01:47:41;;;;;;;2.78;1.10;;;14.90;96.20;;;;;;6986559;28;20049;-79
2022/05/26 01:51:14;;;;;;;3.00;1.02;;;14.90;95.70;;;;;;6991469;28;20053;-80
2022/05/26 01:54:47;;;;;;;4.50;1.10;;;14.90;95.90;;;;;;6986268;28;20471;-80
2022/05/26 01:58:14;;;;;;;3.30;1.10;;;14.90;95.70;;;;;;6980902;28;20041;-80
2022/05/26 02:01:42;;;;;;;3.75;1.17;;;14.90;95.70;;;;;;6961539;28;20576;-80
2022/05/26 02:05:11;;;;;;;3.75;1.00;;;14.80;95.50;;;;;;6972052;28;20045;-81
2022/05/26 02:08:39;;;;;;;2.63;1.00;;;14.90;95.80;;;;;;6993597;28;20049;-80
2022/05/26 02:12:07;;;;;;;4.15;1.10;;;14.80;96.00;;;;;;6990760;28;20497;-80
2022/05/26 02:15:35;;;;;;;3.78;1.33;;;14.80;96.10;;;;;;6977171;28;20052;-81
2022/05/26 02:19:03;;;;;;;6.05;1.30;;;14.70;96.10;;;;;;6971274;28;20059;-79
2022/05/26 02:22:30;;;;;;;4.05;1.17;;;14.70;96.70;;;;;;6981921;28;20056;-79
2022/05/26 02:25:53;;;;;;;5.05;1.20;;;14.70;96.60;;;;;;6979552;28;20056;-79
2022/05/26 02:32:56;;;;;;;4.40;1.02;;;14.40;97.00;;;;;;6973085;28;20049;-80
2022/05/26 02:36:18;;;;;;;4.35;1.05;;;14.40;97.20;;;;;;6986246;28;20048;-80
2022/05/26 02:39:41;;;;;;;3.85;1.08;;;14.40;97.10;;;;;;6979019;28;20052;-79
2022/05/26 02:43:10;;;;;;;1.95;1.00;;;14.30;97.50;;;;;;6979617;28;20049;-79
2022/05/26 02:47:04;;;;;;;2.88;1.05;;;14.20;98.00;;;;;;6954100;28;20095;-79
2022/05/26 02:50:47;;;;;;;3.75;1.30;;;14.20;98.00;;;;;;6953855;28;20045;-79
2022/05/26 02:54:25;;;;;;;4.00;1.10;;;14.00;98.30;;;;;;6971605;28;20052;-81
2022/05/26 02:58:01;;;;;;;5.18;1.17;;;13.90;98.90;;;;;;6987625;28;20384;-81
2022/05/26 03:01:31;;;;;;;2.38;1.00;;;13.80;98.80;;;;;;6986177;28;20041;-81
2022/05/26 03:05:02;;;;;;;3.05;1.00;;;13.60;99.30;;;;;;6971365;28;20468;-82
2022/05/26 03:08:27;;;;;;;2.38;0.90;;;13.50;99.80;;;;;;6987083;28;20059;-84
2022/05/26 03:11:52;;;;;;;2.67;0.82;;;13.50;99.90;;;;;;6978350;28;20495;-81
2022/05/26 03:15:14;;;;;;;5.07;1.30;;;13.30;99.90;;;;;;6998899;28;20048;-81
2022/05/26 03:18:38;;;;;;;5.38;1.33;;;13.30;99.90;;;;;;6974250;28;20045;-81
2022/05/26 03:22:00;;;;;;;2.60;1.10;;;13.10;99.90;;;;;;6979044;28;20091;-82
2022/05/26 03:25:23;;;;;;;3.03;1.20;;;13.20;99.90;;;;;;6965951;28;20123;-81
2022/05/26 03:28:45;;;;;;;4.20;1.20;;;13.10;99.90;;;;;;6988137;28;20048;-81
2022/05/26 03:32:08;;;;;;;2.97;1.27;;;13.10;99.90;;;;;;6985448;28;20384;-82
2022/05/26 03:42:52;;;;;;;2.60;1.00;;;13.10;99.90;;;;;;6956141;28;20410;-81
2022/05/26 03:46:14;;;;;;;3.03;1.08;;;13.00;99.90;;;;;;6981015;28;20045;-81
2022/05/26 03:49:36;;;;;;;2.70;0.90;;;13.00;99.90;;;;;;6989541;28;20402;-81
2022/05/26 03:53:00;;;;;;;3.50;1.10;;;13.00;99.90;;;;;;6978933;28;20048;-81
2022/05/26 03:56:22;;;;;;;5.60;1.20;;;13.00;99.90;;;;;;6966107;28;20056;-79
2022/05/26 03:59:44;;;;;;;4.70;1.37;;;13.00;99.90;;;;;;6977793;28;20063;-80
2022/05/26 04:03:06;;;;;;;3.00;1.23;;;13.00;99.90;;;;;;6976943;28;20047;-80
2022/05/26 04:06:29;;;;;;;2.80;1.17;;;12.90;99.90;;;;;;6990658;28;20158;-80
2022/05/26 04:09:52;;;;;;;3.80;1.70;;;13.00;99.90;;;;;;6972238;28;20053;-79
2022/05/26 04:13:14;;;;;;;3.85;1.38;;;13.10;99.90;;;;;;6985962;28;20037;-83
2022/05/26 04:16:37;;;;;;;3.00;1.20;;;13.20;99.90;;;;;;6952636;28;20048;-82
2022/05/26 04:19:59;;;;;;;7.63;1.27;;;13.20;99.90;;;;;;6970531;28;20055;-81
2022/05/26 04:23:21;;;;;;;2.67;1.20;;;13.30;99.90;;;;;;6987585;28;20063;-82
2022/05/26 04:26:45;;;;;;;2.10;1.00;;;13.30;99.90;;;;;;6990671;28;20040;-81
2022/05/26 04:30:11;;;;;;;2.47;1.02;;;13.30;99.90;;;;;;6984679;28;20182;-81
2022/05/26 04:33:34;;;;;;;3.10;1.30;;;13.30;99.90;;;;;;6971615;28;20482;-82
2022/05/26 04:36:56;;;;;;;2.83;1.13;;;13.40;99.90;;;;;;6971650;28;20062;-81
2022/05/26 04:40:19;;;;;;;4.32;1.00;;;13.40;99.90;;;;;;6968656;28;20056;-81
2022/05/26 04:43:42;;;;;;;3.17;1.35;;;13.40;99.90;;;;;;6983275;28;20044;-81
2022/05/26 04:47:05;;;;;;;2.65;1.00;;;13.50;99.90;;;;;;6953245;28;20127;-80
2022/05/26 04:50:27;;;;;;;2.65;1.13;;;13.50;99.90;;;;;;6988631;28;20566;-82
2022/05/26 04:53:49;;;;;;;5.40;1.20;;;13.50;99.90;;;;;;6993920;28;20052;-81
2022/05/26 04:57:13;;;;;;;4.30;1.20;;;13.50;99.90;;;;;;6984248;28;20048;-80
2022/05/26 05:00:37;;;;;;;3.67;1.10;;;13.50;99.90;;;;;;6973329;28;20045;-81
2022/05/26 05:04:00;;;;;;;4.13;1.10;;;13.60;99.90;;;;;;6993379;28;20483;-81
2022/05/26 05:07:22;;;;;;;2.05;0.95;;;13.60;99.90;;;;;;6972504;28;20045;-80
2022/05/26 05:10:44;;;;;;;3.47;1.00;;;13.60;99.90;;;;;;6939272;28;20147;-81
2022/05/26 05:14:07;;;;;;;4.55;1.35;;;13.70;99.90;;;;;;6957425;28;20399;-82
2022/05/26 05:17:31;;;;;;;3.45;1.10;;;13.70;99.90;;;;;;6972101;28;20075;-81
2022/05/26 05:20:58;;;;;;;4.22;1.20;;;13.70;99.90;;;;;;6971888;28;20087;-80
2022/05/26 05:24:25;;;;;;;3.03;1.05;;;13.70;99.90;;;;;;6960678;28;20502;-81
2022/05/26 05:27:54;;;;;;;2.70;1.00;;;13.80;99.90;;;;;;6965692;28;20053;-84
2022/05/26 05:31:22;;;;;;;3.13;1.10;;;13.90;99.90;;;;;;6953703;28;20045;-81
2022/05/26 05:34:50;;;;;;;3.33;1.10;;;14.00;99.90;;;;;;6950243;28;20042;-84
2022/05/26 05:38:12;;;;;;;3.10;1.20;;;14.00;99.90;;;;;;6948525;28;20052;-82
2022/05/26 05:41:36;;;;;;;3.90;1.10;;;14.10;99.90;;;;;;6947150;28;20049;-83
2022/05/26 05:44:59;;;;;;;3.45;1.00;;;14.10;99.90;;;;;;6950367;28;20569;-82
2022/05/26 05:48:21;;;;;;;3.83;1.10;;;14.20;99.90;;;;;;6960788;28;20056;-83
2022/05/26 05:51:45;;;;;;;2.90;1.13;;;14.30;99.90;;;;;;6959945;28;20119;-83
2022/05/26 05:55:08;;;;;;;2.60;0.90;;;14.30;99.60;;;;;;6950393;28;20041;-83
2022/05/26 05:58:30;;;;;;;4.53;1.17;;;14.40;99.90;;;;;;6963808;28;20041;-82
2022/05/26 06:01:52;;;;;;;3.07;1.07;;;14.40;99.20;;;;;;6966374;28;20502;-82
2022/05/26 06:05:14;;;;;;;5.03;1.27;;;14.50;99.50;;;;;;6970978;28;20045;-82
2022/05/26 06:08:38;;;;;;;2.83;1.00;;;14.60;99.50;;;;;;6976367;28;20055;-81
2022/05/26 06:12:00;;;;;;;4.38;0.98;;;14.70;99.50;;;;;;6973497;28;20179;-81
2022/05/26 06:15:23;;;;;;;3.42;0.90;;;14.70;99.20;;;;;;6986479;28;20045;-81
2022/05/26 06:18:46;;;;;;;2.07;0.90;;;14.90;99.50;;;;;;6983289;28;20056;-80
2022/05/26 06:22:09;;;;;;;;;;;14.90;98.80;;;;;;6975098;28;20041;-83
2022/05/26 06:25:33;;;;;;;3.00;0.90;;;15.00;99.30;;;;;;6992503;28;19924;-81
2022/05/26 06:40:06;;;;;;;3.38;0.88;;;15.30;97.50;;;;;;6979917;28;20060;-82
2022/05/26 06:43:29;;;;;;;3.38;0.90;;;15.30;97.20;;;;;;6976718;28;20053;-82
2022/05/26 06:46:51;;;;;;;4.88;0.90;;;15.40;96.80;;;;;;6989396;28;20072;-81
2022/05/26 06:50:14;;;;;;;3.20;1.00;;;15.50;96.40;;;;;;6813793;28;20089;-84
2022/05/26 06:53:38;;;;;;;2.97;1.00;;;15.50;96.20;;;;;;6897997;28;20054;-84
2022/05/26 06:57:00;;;;;;;4.78;1.00;;;15.60;95.90;;;;;;6917133;28;20436;-82
2022/05/26 07:00:25;;;;;;;2.67;1.05;;;15.70;95.50;;;;;;6899089;28;20133;-83
2022/05/26 07:03:47;;;;;;;3.42;0.80;;;15.70;95.40;;;;;;6905162;28;20112;-78
2022/05/26 07:07:12;;;;;;;2.67;0.80;;;15.90;95.50;;;;;;6908630;28;20061;-79
2022/05/26 07:10:34;;;;;;;4.00;0.85;;;16.00;94.40;;;;;;6898838;28;20336;-81
2022/05/26 07:13:57;;;;;;;2.17;0.70;;;16.10;95.00;;;;;;6901691;28;20515;-82
2022/05/26 07:17:21;;;;;;;1.88;0.70;;;16.20;93.80;;;;;;6918155;28;20399;-82
2022/05/26 07:20:43;;;;;;;4.07;1.00;;;16.20;93.50;;;;;;6935242;28;20053;-82
2022/05/26 07:24:06;;;;;;;3.43;0.90;;;16.40;92.80;;;;;;6911131;28;20057;-82
2022/05/26 07:27:28;;;;;;;4.80;0.90;;;16.60;92.90;;;;;;6890454;28;20060;-81
2022/05/26 07:30:52;;;;;;;2.40;0.90;;;16.60;91.10;;;;;;6902941;28;20046;-83
2022/05/26 07:34:16;;;;;;;3.45;0.80;;;16.70;92.10;;;;;;6905117;28;21739;-82
2022/05/26 07:41:22;;;;;;;2.60;0.70;;;16.80;92.40;;;;;;6902807;28;20050;-82
2022/05/26 07:44:47;;;;;;;2.40;0.60;;;16.90;92.20;;;;;;6915369;28;20042;-84
2022/05/26 07:48:10;;;;;;;3.72;1.17;;;17.00;92.70;;;;;;6915041;28;20096;-82
2022/05/26 07:51:34;;;;;;;3.17;0.70;;;16.90;91.80;;;;;;6908632;28;20113;-83
2022/05/26 07:54:56;;;;;;;3.83;0.63;;;16.90;91.40;;;;;;6915452;28;20074;-83
2022/05/26 07:58:20;;;;;;;2.53;0.90;;;17.00;91.60;;;;;;6915346;28;20049;-82
2022/05/26 08:01:42;;;;;;;3.33;0.73;;;17.10;91.40;;;;;;6915926;28;20053;-82
2022/05/26 08:05:06;;;;;;;2.57;0.73;;;17.40;91.00;;;;;;6896916;28;20042;-84
2022/05/26 08:08:32;;;;;;;3.83;0.80;;;17.50;90.50;;;;;;6890926;28;20058;-84
2022/05/26 08:11:54;;;;;;;2.60;0.80;;;17.70;89.50;;;;;;6898523;28;20054;-88
2022/05/26 08:19:24;;;;;;;5.03;0.80;;;17.90;88.90;;;;;;8202614;23;21431;-82
2022/05/26 08:22:46;;;;;;;3.70;1.00;;;18.00;90.30;;;;;;6904853;28;20084;-83
2022/05/26 08:26:10;;;;;;;2.10;0.60;;;18.20;89.20;;;;;;6909713;28;20097;-82
2022/05/26 08:29:34;;;;;;;2.85;0.70;;;18.30;89.40;;;;;;6897338;28;20534;-84
2022/05/26 08:32:57;;;;;;;3.35;0.80;;;18.30;89.90;;;;;;6909641;28;20049;-83
2022/05/26 08:36:23;;;;;;;2.25;0.70;;;18.40;87.90;;;;;;6913331;28;20100;-83
2022/05/26 08:39:46;;;;;;;2.53;0.80;;;18.50;87.40;;;;;;6911956;28;20058;-83
2022/05/26 08:43:16;;;;;;;3.35;0.82;;;18.40;86.90;;;;;;6908094;28;20050;-83
2022/05/26 08:46:45;;;;;;;2.67;0.60;;;18.60;87.30;;;;;;6914876;28;20490;-84
2022/05/26 08:50:11;;;;;;;1.70;0.60;;;18.90;86.10;;;;;;6916723;28;20042;-86
2022/05/26 08:53:39;;;;;;;1.30;0.50;;;19.10;85.70;;;;;;6912564;28;20057;-85
2022/05/26 08:57:02;;;;;;;3.60;0.60;;;19.00;82.80;;;;;;6909179;28;20046;-85
2022/05/26 09:00:27;;;;;;;2.70;0.73;;;18.90;82.10;;;;;;6911686;28;20077;-84
2022/05/26 09:03:49;;;;;;;1.25;0.45;;;18.90;83.40;;;;;;6915075;28;20495;-85
2022/05/26 09:14:38;;;;;;;1.85;0.47;;;18.90;78.20;;;;;;6912943;28;20050;-85
2022/05/26 09:18:12;;;;;;;4.35;0.85;;;19.10;78.80;;;;;;6913170;28;20042;-84
2022/05/26 09:21:36;;;;;;;1.92;0.50;;;19.20;78.80;;;;;;6912104;28;20061;-87
2022/05/26 09:24:59;;;;;;;1.88;0.60;;;19.10;79.10;;;;;;6912193;28;20053;-85
2022/05/26 09:28:33;;;;;;;1.42;0.50;;;19.40;80.20;;;;;;6913488;28;20499;-85
2022/05/26 09:31:59;;;;;;;1.52;0.68;;;19.30;78.30;;;;;;6917802;28;20488;-83
2022/05/26 09:35:28;;;;;;;2.40;0.80;;;19.40;78.50;;;;;;6910818;28;20487;-84
2022/05/26 09:38:51;;;;;;;1.70;0.70;;;19.40;76.40;;;;;;6913036;28;20093;-84
2022/05/26 09:42:29;;;;;;;1.13;0.40;;;19.30;77.60;;;;;;6911314;28;20042;-84
2022/05/26 09:45:53;;;;;;;1.33;0.40;;;19.50;80.00;;;;;;6921753;28;20046;-83
2022/05/26 09:49:15;;;;;;;2.88;0.75;;;19.40;77.20;;;;;;6918086;28;20085;-84
2022/05/26 09:52:46;;;;;;;3.15;0.70;;;19.50;76.20;;;;;;6915646;28;20085;-84
2022/05/26 09:56:09;;;;;;;1.95;0.50;;;19.60;77.70;;;;;;6904832;28;20144;-85
2022/05/26 09:59:38;;;;;;;2.60;0.70;;;19.70;75.80;;;;;;6918553;28;20076;-86
2022/05/26 10:03:06;;;;;;;2.33;0.70;;;19.60;77.80;;;;;;6914566;28;20080;-83
2022/05/26 10:06:33;;;;;;;1.70;0.65;;;19.60;76.80;;;;;;6916141;28;20136;-83
2022/05/26 10:10:10;;;;;;;2.10;0.60;;;19.60;76.60;;;;;;6915208;28;20042;-84
2022/05/26 10:13:49;;;;;;;2.25;0.80;;;19.40;75.00;;;;;;6905989;28;20193;-85
2022/05/26 10:17:20;;;;;;;1.77;0.60;;;19.40;75.90;;;;;;6910843;28;20042;-84
2022/05/26 10:20:51;;;;;;;3.17;0.60;;;19.40;76.20;;;;;;6926017;28;20053;-85
2022/05/26 10:24:49;;;;;;;2.22;0.47;;;19.20;76.10;;;;;;6911768;28;20080;-85
2022/05/26 10:28:45;;;;;;;1.35;0.47;;;19.30;76.10;;;;;;6920537;28;20176;-83
2022/05/26 10:32:27;;;;;;;2.53;0.50;;;19.30;76.40;;;;;;6909625;28;20041;-83
2022/05/26 10:36:03;;;;;;;2.13;0.70;;;19.40;75.90;;;;;;6914529;28;20076;-82
2022/05/26 10:39:41;;;;;;;3.38;0.60;;;19.50;76.50;;;;;;6912973;28;20511;-82
2022/05/26 10:43:08;;;;;;;1.05;0.60;;;19.30;76.20;;;;;;6914355;28;20073;-82
2022/05/26 10:46:35;;;;;;;1.83;0.60;;;19.30;77.10;;;;;;6915933;28;20092;-82
2022/05/26 10:50:04;;;;;;;4.93;0.60;;;19.10;76.90;;;;;;6912328;28;20080;-84
2022/05/26 10:53:34;;;;;;;3.33;0.70;;;19.30;76.60;;;;;;6910839;28;20490;-84
2022/05/26 10:57:05;;;;;;;3.10;0.68;;;19.30;78.00;;;;;;6898606;28;20506;-84
2022/05/26 11:00:30;;;;;;;1.80;0.57;;;19.40;78.20;;;;;;6912159;28;20088;-84
2022/05/26 11:04:06;;;;;;;3.17;0.80;;;19.40;75.50;;;;;;6911888;28;20103;-84
2022/05/26 11:07:35;;;;;;;2.55;0.80;;;19.70;76.00;;;;;;6910073;28;20092;-85
2022/05/26 11:11:04;;;;;;;3.42;0.93;;;19.70;75.90;;;;;;6910023;28;20511;-84
2022/05/26 11:18:19;;;;;;;1.67;0.60;;;19.50;75.10;;;;;;6912135;28;20057;-84
2022/05/26 11:21:43;;;;;;;3.38;0.90;;;19.40;79.00;;;;;;6911941;28;20092;-85
2022/05/26 11:25:06;;;;;;;2.92;0.80;;;19.50;79.00;;;;;;6910570;28;20132;-84
2022/05/26 11:28:39;;;;;;;3.67;0.63;;;19.50;80.00;;;;;;6911210;28;20058;-83
2022/05/26 11:36:10;;;;;;;3.92;0.70;;;19.20;77.40;;;;;;6941903;28;20045;-82
2022/05/26 11:39:39;;;;;;;3.78;0.60;;;19.00;76.70;;;;;;6915613;28;20046;-83
2022/05/26 11:43:02;;;;;;;1.23;0.45;;;19.10;77.70;;;;;;6915410;28;20053;-83
2022/05/26 11:46:49;;;;;;;2.47;0.60;;;19.00;78.80;;;;;;6915811;28;20057;-84
2022/05/26 11:50:57;;;;;;;2.53;0.57;;;19.00;79.00;;;;;;6933894;28;20136;-84
2022/05/26 11:55:11;;;;;;;1.27;0.50;;;19.10;80.90;;;;;;6942942;28;20084;-83
2022/05/26 11:58:38;;;;;;;2.33;0.75;;;19.20;79.50;;;;;;6929453;28;20052;-82
2022/05/26 12:02:30;;;;;;;3.33;0.70;;;19.20;79.30;;;;;;6915242;28;20054;-82
2022/05/26 12:05:59;;;;;;;3.00;0.80;;;19.30;80.20;;;;;;6885433;28;20049;-83
2022/05/26 12:09:30;;;;;;;1.80;0.73;;;19.40;79.50;;;;;;6915383;28;20045;-83
2022/05/26 12:13:29;;;;;;;3.08;0.70;;;19.50;80.80;;;;;;6915503;28;20426;-82
2022/05/26 12:16:51;;;;;;;2.00;0.88;;;19.60;79.30;;;;;;6914435;28;20046;-82
2022/05/26 12:20:33;;;;;;;2.83;0.90;;;19.50;78.30;;;;;;6915032;28;20060;-82
2022/05/26 12:23:56;;;;;;;5.60;0.80;;;19.70;80.60;;;;;;6915235;28;20140;-83
2022/05/26 12:27:55;;;;;;;4.13;1.00;;;19.80;79.20;;;;;;6938185;28;20057;-82
2022/05/26 12:31:19;;;;;;;1.60;0.60;;;20.00;78.60;;;;;;6942512;28;20073;-83
2022/05/26 12:34:56;;;;;;;2.45;0.70;;;20.10;77.30;;;;;;6919012;28;20511;-82
2022/05/26 12:38:36;;;;;;;4.20;1.00;;;20.10;76.80;;;;;;6914627;28;20411;-83
2022/05/26 12:42:05;;;;;;;1.30;0.50;;;20.40;74.70;;;;;;6884128;28;20538;-83
2022/05/26 12:45:52;;;;;;;1.52;0.57;;;20.70;75.70;;;;;;6887700;28;20054;-82
2022/05/26 12:49:36;;;;;;;2.08;0.80;;;21.00;74.80;;;;;;6883917;28;20042;-83
2022/05/26 12:53:12;;;;;;;1.65;0.70;;;21.20;72.80;;;;;;6940675;28;20514;-83
2022/05/26 12:56:48;;;;;;;3.80;0.70;;;21.50;72.30;;;;;;6919857;28;20060;-83
2022/05/26 13:00:33;;;;;;;3.10;1.00;;;21.60;70.10;;;;;;6914597;28;20450;-83
2022/05/26 13:04:05;;;;;;;3.70;0.73;;;21.50;70.90;;;;;;6917495;28;20049;-83
2022/05/26 13:07:29;;;;;;;2.88;0.82;;;21.20;72.00;;;;;;6919501;28;20480;-83
2022/05/26 13:10:55;;;;;;;2.22;0.70;;;21.00;71.00;;;;;;6919975;28;20447;-83
2022/05/26 13:14:32;;;;;;;5.03;0.90;;;21.20;71.60;;;;;;6919653;28;20054;-83
2022/05/26 13:17:55;;;;;;;2.50;0.70;;;21.30;72.30;;;;;;6919623;28;20080;-83
2022/05/26 13:21:18;;;;;;;;;;;21.30;68.70;;;;;;6917553;28;20060;-85
2022/05/26 13:24:53;;;;;;;3.88;1.00;;;21.60;67.60;;;;;;6903453;28;19921;-92
2022/05/26 13:28:15;;;;;;;2.22;0.70;;;22.10;69.90;;;;;;6919484;28;20069;-80
2022/05/26 13:35:24;;;;;;;4.60;0.77;;;22.50;67.80;;;;;;6912386;28;20054;-83
2022/05/26 13:38:47;;;;;;;3.92;1.02;;;22.60;67.30;;;;;;6918536;28;20046;-89
2022/05/26 13:42:12;;;;;;;3.83;0.90;;;23.00;66.50;;;;;;6925548;28;20132;-88
2022/05/26 13:45:36;;;;;;;2.35;0.70;;;23.40;65.10;;;;;;6934604;28;20050;-85
2022/05/26 13:49:01;;;;;;;3.05;0.90;;;23.40;64.30;;;;;;6916059;28;20061;-86
2022/05/26 13:52:27;;;;;;;1.73;0.73;;;23.50;66.00;;;;;;6914355;28;20533;-86
2022/05/26 13:55:51;;;;;;;3.05;0.90;;;22.90;63.50;;;;;;6916949;28;20046;-84
2022/05/26 13:59:16;;;;;;;2.72;0.90;;;22.60;66.20;;;;;;6917265;28;20080;-93
2022/05/26 14:02:38;;;;;;;2.20;0.90;;;22.10;66.20;;;;;;6917020;28;20057;-83
2022/05/26 14:06:05;;;;;;;3.97;1.23;;;22.20;66.40;;;;;;6916302;28;20407;-85
2022/05/26 14:09:33;;;;;;;2.17;0.75;;;22.40;66.80;;;;;;6915610;28;20042;-91
2022/05/26 14:13:05;;;;;;;4.15;0.68;;;22.50;67.20;;;;;;6922866;28;20050;-86
2022/05/26 14:16:29;;;;;;;2.33;0.70;;;22.60;65.80;;;;;;6929836;28;20042;-83
2022/05/26 14:19:51;;;;;;;2.25;0.70;;;22.40;64.90;;;;;;6915623;28;20084;-84
2022/05/26 14:23:13;;;;;;;2.80;0.70;;;22.40;64.40;;;;;;6921031;28;20550;-84
2022/05/26 14:26:39;;;;;;;4.18;0.80;;;22.40;64.90;;;;;;6914313;28;20084;-83
2022/05/26 14:30:30;;;;;;;2.47;0.80;;;22.30;64.50;;;;;;6916124;28;20045;-84
2022/05/26 14:34:06;;;;;;;4.70;0.80;;;22.50;64.60;;;;;;6916329;28;20057;-84
2022/05/26 14:37:30;;;;;;;2.20;0.70;;;22.70;64.20;;;;;;6896410;28;20058;-86
2022/05/26 14:40:53;;;;;;;3.20;1.17;;;23.30;63.00;;;;;;6915727;28;20046;-85
2022/05/26 14:44:15;;;;;;;;;;;23.50;61.90;;;;;;6906255;28;20042;-84
2022/05/26 14:47:37;;;;;;;2.33;0.60;;;23.80;60.10;;;;;;6916073;28;19928;-86
2022/05/26 14:51:00;;;;;;;;;;;23.70;60.90;;;;;;6911675;28;20069;-82
2022/05/26 14:58:15;;;;;;;2.42;0.85;;;23.80;61.40;;;;;;6914992;28;20420;-81
2022/05/26 15:01:37;;;;;;;2.50;0.63;;;24.00;60.50;;;;;;6915337;28;20116;-84
2022/05/26 15:04:59;;;;;;;4.03;0.90;;;24.80;60.10;;;;;;6915843;28;20062;-85
2022/05/26 15:08:29;;;;;;;4.82;1.42;;;24.80;59.90;;;;;;6913884;28;20081;-80
2022/05/26 15:11:55;;;;;;;1.63;0.70;;;24.70;58.70;;;;;;6909792;28;20072;-89
2022/05/26 15:15:20;;;;;;;4.13;0.70;;;24.70;58.80;;;;;;6916896;28;20075;-93
2022/05/26 15:18:43;;;;;;;3.78;0.90;;;24.70;59.20;;;;;;6914351;28;20471;-84
2022/05/26 15:22:06;;;;;;;2.20;0.85;;;25.00;59.10;;;;;;6913790;28;20057;-94
2022/05/26 15:25:30;;;;;;;4.43;1.00;;;25.20;57.20;;;;;;6916146;28;20096;-91
2022/05/26 15:28:56;;;;;;;2.78;1.17;;;24.80;58.50;;;;;;6922031;28;20050;-85
2022/05/26 15:32:30;;;;;;;2.55;0.90;;;24.80;59.10;;;;;;6915218;28;20069;-86
2022/05/26 15:35:52;;;;;;;3.83;1.13;;;24.90;57.20;;;;;;6897797;28;20046;-89
2022/05/26 15:39:14;;;;;;;2.95;1.02;;;24.60;57.90;;;;;;6917467;28;20049;-88
2022/05/26 15:42:38;;;;;;;3.90;0.68;;;24.90;57.80;;;;;;6917367;28;20054;-91
2022/05/26 15:46:01;;;;;;;5.95;1.10;;;25.30;57.20;;;;;;6915903;28;20042;-89
2022/05/26 15:49:25;;;;;;;1.70;0.60;;;24.80;57.10;;;;;;6905803;28;20046;-92
2022/05/26 15:52:48;;;;;;;3.22;0.80;;;24.30;57.50;;;;;;6915488;28;20057;-86
2022/05/26 15:56:19;;;;;;;2.42;0.80;;;24.50;57.40;;;;;;6913909;28;20053;-85
2022/05/26 15:59:42;;;;;;;1.67;0.50;;;24.90;58.20;;;;;;6912500;28;20042;-87
2022/05/26 16:03:05;;;;;;;2.45;0.70;;;24.60;56.70;;;;;;6912784;28;20450;-91
2022/05/26 16:06:27;;;;;;;2.72;0.77;;;24.70;56.50;;;;;;6903893;28;20050;-89
2022/05/26 16:09:49;;;;;;;;;;;25.00;56.40;;;;;;6915819;28;20057;-85
2022/05/26 16:13:15;;;;;;;3.33;0.70;;;25.10;56.80;;;;;;6914117;28;19925;-86
2022/05/26 16:16:39;;;;;;;4.15;1.00;;;24.80;56.40;;;;;;6915217;28;20070;-94
2022/05/26 16:20:02;;;;;;;1.95;0.70;;;24.80;55.90;;;;;;6915302;28;20534;-86
2022/05/26 16:23:25;;;;;;;2.03;0.88;;;24.80;56.80;;;;;;6913492;28;20045;-88
2022/05/26 16:26:46;;;;;;;;;;;24.80;57.10;;;;;;6899161;28;20407;-88
2022/05/26 16:30:14;;;;;;;2.47;0.80;;;24.60;55.90;;;;;;6913096;28;19921;-88
2022/05/26 16:33:38;;;;;;;7.55;2.95;;;24.60;56.40;;;;;;6903924;28;20056;-86
2022/05/26 16:37:00;;;;;;;3.03;0.90;;;24.40;56.70;;;;;;6913507;28;20042;-85
2022/05/26 16:40:22;;;;;;;1.80;0.77;;;24.60;57.30;;;;;;6918389;28;20049;-85
2022/05/26 16:43:44;;;;;;;;;;;25.00;56.90;;;;;;6919242;28;20054;-84
2022/05/26 16:47:07;;;;;;;2.90;0.70;;;24.80;55.50;;;;;;6917805;28;19928;-83
2022/05/26 16:50:33;;;;;;;2.33;0.60;;;24.80;55.60;;;;;;6917451;28;20052;-84
2022/05/26 16:53:56;;;;;;;1.63;0.70;;;24.80;56.20;;;;;;6910232;28;20050;-85
2022/05/26 16:57:18;;;;;;;2.33;0.60;;;24.50;56.10;;;;;;6911353;28;20451;-88
2022/05/26 17:00:40;;;;;;;2.33;0.80;;;24.60;56.10;;;;;;6918216;28;20482;-84
2022/05/26 17:04:02;;;;;;;3.28;0.77;;;24.70;56.90;;;;;;6921482;28;20046;-85
2022/05/26 17:07:26;;;;;;;3.15;0.75;;;24.90;55.90;;;;;;6919313;28;20424;-84
2022/05/26 17:10:51;;;;;;;3.42;1.05;;;24.60;56.00;;;;;;6912946;28;20039;-84
2022/05/26 17:21:43;;;;;;;1.60;0.70;;;23.60;57.10;;;;;;6918561;28;20058;-88
2022/05/26 17:25:09;;;;;;;2.10;0.80;;;23.80;57.30;;;;;;6917365;28;20042;-83
2022/05/26 17:28:32;;;;;;;2.30;0.70;;;23.60;57.20;;;;;;6911000;28;20069;-83
2022/05/26 17:31:56;;;;;;;2.47;0.80;;;23.60;57.80;;;;;;6918313;28;20092;-84
2022/05/26 17:35:18;;;;;;;2.17;0.70;;;23.50;57.30;;;;;;6926734;28;20053;-83
2022/05/26 17:38:43;;;;;;;2.55;0.68;;;23.30;58.20;;;;;;6928643;28;20053;-83
2022/05/26 17:42:09;;;;;;;1.30;0.50;;;23.30;58.50;;;;;;6918173;28;20175;-81
2022/05/26 17:45:31;;;;;;;2.20;0.70;;;23.30;58.40;;;;;;6925496;28;20058;-80
2022/05/26 17:48:53;;;;;;;8.48;4.00;;;23.30;58.40;;;;;;6928900;28;20045;-78
2022/05/26 17:52:18;;;;;;;3.60;0.90;;;23.30;59.00;;;;;;6914907;28;20455;-78
2022/05/26 17:55:40;;;;;;;2.55;0.70;;;23.20;58.90;;;;;;6924718;28;20057;-84
2022/05/26 17:59:04;;;;;;;3.25;0.80;;;22.90;59.10;;;;;;6911990;28;20104;-84
2022/05/26 18:02:27;;;;;;;2.80;0.80;;;22.90;60.00;;;;;;6915164;28;20057;-83
2022/05/26 18:05:49;;;;;;;2.10;0.70;;;22.90;59.70;;;;;;6915796;28;20527;-82
2022/05/26 18:09:11;;;;;;;1.60;0.60;;;22.90;60.30;;;;;;6906916;28;20522;-82
2022/05/26 18:12:34;;;;;;;3.42;0.80;;;22.70;60.70;;;;;;6911239;28;20088;-84
2022/05/26 18:15:57;;;;;;;2.10;0.80;;;22.50;61.00;;;;;;6899259;28;20073;-82
2022/05/26 18:19:20;;;;;;;2.20;0.75;;;22.50;61.70;;;;;;6912216;28;20089;-82
2022/05/26 18:22:44;;;;;;;;;;;22.30;62.60;;;;;;6914326;28;20092;-80
2022/05/26 18:26:06;;;;;;;3.72;0.80;;;22.10;62.40;;;;;;6910401;28;20554;-83
2022/05/26 18:29:29;;;;;;;1.38;0.60;;;22.00;63.40;;;;;;6914652;28;20839;-83
2022/05/26 18:32:52;;;;;;;2.08;0.65;;;21.90;63.30;;;;;;6912852;28;20121;-82
2022/05/26 18:36:14;;;;;;;4.93;2.75;;;21.80;63.80;;;;;;6908301;28;20448;-83
2022/05/26 18:39:37;;;;;;;2.78;0.80;;;21.70;64.20;;;;;;6912834;28;20045;-82
2022/05/26 18:42:59;;;;;;;2.08;0.70;;;21.60;63.90;;;;;;6912401;28;20614;-85
2022/05/26 18:46:22;;;;;;;2.22;0.80;;;21.50;64.50;;;;;;6906148;28;20411;-84
2022/05/26 18:49:46;;;;;;;2.58;0.90;;;21.40;65.20;;;;;;6912847;28;20046;-82
2022/05/26 18:53:08;;;;;;;4.40;1.60;;;21.30;66.00;;;;;;6912815;28;20089;-87
2022/05/26 18:56:31;;;;;;;2.88;1.10;;;21.30;67.10;;;;;;6912886;28;20096;-84
2022/05/26 18:59:53;;;;;;;2.35;0.80;;;21.10;66.90;;;;;;6913297;28;20078;-83
2022/05/26 19:03:17;;;;;;;2.97;0.80;;;21.20;66.80;;;;;;6912979;28;20058;-84